Time;durP1;ratioP1;P1;durP2;ratioP2;P2;SDS_P1;SDS_P2;PMS_P1;PMS_P2;Temp;Humidity;BMP_temperature;BMP_pressure;BME280_temperature;BME280_humidity;BME280_pressure;Samples;Min_cycle;Max_cycle;Signal;HPM_P1;HPM_P2
2022/07/14 00:00:45;;;;;;;;;;;23.60;59.90;;;;;;5033505;28;20382;-65
2022/07/14 00:03:11;;;;;;;;;;;23.60;59.90;;;;;;5033762;28;19917;-65
2022/07/14 00:05:36;;;;;;;;;;;23.70;59.40;;;;;;5033402;28;19913;-65
2022/07/14 00:08:03;;;;;;;;;;;23.80;59.20;;;;;;5019649;28;19910;-65
2022/07/14 00:10:28;;;;;;;;;;;24.00;58.80;;;;;;5033670;28;19910;-65
2022/07/14 00:12:54;;;;;;;;;;;24.00;59.00;;;;;;5033424;28;19918;-65
2022/07/14 00:15:20;;;;;;;;;;;24.10;58.50;;;;;;5033201;28;19956;-65
2022/07/14 00:17:45;;;;;;;;;;;24.20;58.20;;;;;;5033361;28;19909;-65
2022/07/14 00:20:11;;;;;;;;;;;23.80;59.00;;;;;;5015905;28;19989;-65
2022/07/14 00:22:36;;;;;;;;;;;23.80;59.30;;;;;;5020241;28;19961;-65
2022/07/14 00:25:02;;;;;;;;;;;24.00;59.00;;;;;;5032494;28;19913;-65
2022/07/14 00:27:28;;;;;;;;;;;24.10;58.70;;;;;;5033415;28;19948;-65
2022/07/14 00:29:53;;;;;;;;;;;24.20;58.20;;;;;;5033349;28;19913;-65
2022/07/14 00:32:19;;;;;;;;;;;24.30;58.00;;;;;;5033244;28;19909;-65
2022/07/14 00:34:44;;;;;;;;;;;24.30;58.00;;;;;;5033025;28;19913;-65
2022/07/14 00:37:10;;;;;;;;;;;24.40;57.70;;;;;;5033282;28;20412;-66
2022/07/14 00:42:32;;;;;;;;;;;24.20;58.40;;;;;;5032992;28;20044;-65
2022/07/14 00:44:58;;;;;;;;;;;24.10;58.60;;;;;;5031630;28;20309;-66
2022/07/14 00:47:24;;;;;;;;;;;24.10;58.70;;;;;;5013978;28;20424;-65
2022/07/14 00:49:53;;;;;;;;;;;24.10;58.80;;;;;;5032477;28;19956;-65
2022/07/14 00:52:19;;;;;;;;;;;24.10;58.70;;;;;;5032930;28;20348;-65
2022/07/14 00:54:45;;;;;;;;;;;24.20;58.50;;;;;;5033119;28;19920;-65
2022/07/14 00:57:10;;;;;;;;;;;24.20;58.70;;;;;;5032682;28;19909;-66
2022/07/14 00:59:36;;;;;;;;;;;24.10;59.00;;;;;;5032471;28;19925;-66
2022/07/14 01:02:01;;;;;;;;;;;24.10;59.10;;;;;;5032629;28;19915;-65
2022/07/14 01:04:27;;;;;;;;;;;24.00;59.20;;;;;;5032510;28;20420;-65
2022/07/14 01:06:52;;;;;;;;;;;24.00;59.30;;;;;;5022772;28;20004;-66
2022/07/14 01:09:18;;;;;;;;;;;24.00;59.50;;;;;;5028390;28;20005;-65
2022/07/14 01:11:44;;;;;;;;;;;23.80;59.90;;;;;;5014695;28;19913;-67
2022/07/14 01:14:09;;;;;;;;;;;23.80;60.10;;;;;;5032605;28;19920;-65
2022/07/14 01:16:35;;;;;;;;;;;23.80;60.30;;;;;;5014418;28;20000;-65
2022/07/14 01:19:00;;;;;;;;;;;23.70;60.40;;;;;;5032360;28;20372;-65
2022/07/14 01:21:26;;;;;;;;;;;23.60;61.10;;;;;;5032264;28;20416;-66
2022/07/14 01:23:51;;;;;;;;;;;23.50;61.10;;;;;;5032240;28;20010;-66
2022/07/14 01:26:17;;;;;;;;;;;23.50;61.00;;;;;;5031442;28;19913;-66
2022/07/14 01:28:42;;;;;;;;;;;23.60;61.10;;;;;;5032207;28;20338;-66
2022/07/14 01:31:08;;;;;;;;;;;23.50;61.10;;;;;;5032134;28;20329;-65
2022/07/14 01:33:33;;;;;;;;;;;23.50;61.00;;;;;;5032037;28;19917;-66
2022/07/14 01:35:59;;;;;;;;;;;23.30;61.70;;;;;;5032048;28;20277;-66
2022/07/14 01:38:24;;;;;;;;;;;23.20;62.50;;;;;;5032046;28;19909;-66
2022/07/14 01:40:50;;;;;;;;;;;23.10;62.80;;;;;;5032420;28;19920;-66
2022/07/14 01:43:16;;;;;;;;;;;23.10;63.00;;;;;;5031902;28;19926;-66
2022/07/14 01:45:41;;;;;;;;;;;23.10;63.00;;;;;;5032262;28;19917;-66
2022/07/14 01:48:07;;;;;;;;;;;23.20;62.70;;;;;;5032069;28;19919;-66
2022/07/14 01:50:32;;;;;;;;;;;23.20;62.60;;;;;;5031999;28;19917;-65
2022/07/14 01:52:58;;;;;;;;;;;23.30;61.90;;;;;;5032238;28;20381;-65
2022/07/14 01:55:23;;;;;;;;;;;23.40;61.70;;;;;;5031546;28;19909;-66
2022/07/14 01:57:50;;;;;;;;;;;23.20;62.10;;;;;;5031913;28;19917;-64
2022/07/14 02:00:16;;;;;;;;;;;23.10;62.70;;;;;;5031893;28;19971;-64
2022/07/14 02:02:42;;;;;;;;;;;23.00;63.20;;;;;;5031512;28;19964;-66
2022/07/14 02:05:08;;;;;;;;;;;22.80;63.70;;;;;;5031807;28;20369;-65
2022/07/14 02:07:34;;;;;;;;;;;22.90;63.50;;;;;;5017783;28;19916;-66
2022/07/14 02:12:43;;;;;;;;;;;23.00;63.00;;;;;;5017693;28;19968;-65
2022/07/14 02:15:09;;;;;;;;;;;23.00;62.50;;;;;;5031776;28;19918;-65
2022/07/14 02:17:34;;;;;;;;;;;23.00;63.10;;;;;;5031834;28;19956;-65
2022/07/14 02:20:00;;;;;;;;;;;23.00;63.10;;;;;;5031575;28;19917;-65
2022/07/14 02:22:26;;;;;;;;;;;23.00;62.90;;;;;;5031471;28;19920;-65
2022/07/14 02:24:51;;;;;;;;;;;22.90;62.70;;;;;;5031448;28;19924;-66
2022/07/14 02:27:17;;;;;;;;;;;23.00;62.80;;;;;;5031742;28;20328;-66
2022/07/14 02:29:42;;;;;;;;;;;23.00;62.30;;;;;;5031318;28;19924;-66
2022/07/14 02:32:08;;;;;;;;;;;23.30;61.00;;;;;;5034245;28;19972;-66
2022/07/14 02:34:33;;;;;;;;;;;23.40;60.30;;;;;;5033091;28;19909;-66
2022/07/14 02:36:59;;;;;;;;;;;23.40;60.00;;;;;;5033045;28;19936;-65
2022/07/14 02:39:24;;;;;;;;;;;23.50;59.70;;;;;;5036696;28;20004;-64
2022/07/14 02:41:50;;;;;;;;;;;23.30;60.00;;;;;;5035346;28;19909;-66
2022/07/14 02:44:16;;;;;;;;;;;23.30;60.10;;;;;;5035144;28;20323;-64
2022/07/14 02:46:41;;;;;;;;;;;23.50;59.60;;;;;;5035026;28;20376;-66
2022/07/14 02:49:07;;;;;;;;;;;23.50;59.20;;;;;;5037730;28;19910;-64
2022/07/14 02:51:33;;;;;;;;;;;23.60;59.20;;;;;;5035262;28;20000;-63
2022/07/14 02:53:58;;;;;;;;;;;23.70;59.00;;;;;;5035075;28;19910;-65
2022/07/14 02:56:24;;;;;;;;;;;23.70;58.70;;;;;;5034657;28;19909;-65
2022/07/14 02:58:50;;;;;;;;;;;23.70;58.40;;;;;;5034750;28;19924;-67
2022/07/14 03:01:15;;;;;;;;;;;23.60;58.20;;;;;;5034791;28;20335;-66
2022/07/14 03:03:41;;;;;;;;;;;23.60;58.20;;;;;;5034845;28;19923;-65
2022/07/14 03:06:18;;;;;;;;;;;23.50;58.30;;;;;;5031248;28;19917;-65
2022/07/14 03:08:44;;;;;;;;;;;23.40;58.30;;;;;;5026232;28;20316;-66
2022/07/14 03:11:09;;;;;;;;;;;23.20;58.70;;;;;;5034776;28;19967;-66
2022/07/14 03:13:35;;;;;;;;;;;23.10;59.10;;;;;;5017131;28;20003;-66
2022/07/14 03:16:02;;;;;;;;;;;23.20;58.80;;;;;;5034342;28;19909;-66
2022/07/14 03:18:28;;;;;;;;;;;23.30;58.70;;;;;;5034551;28;19909;-66
2022/07/14 03:20:53;;;;;;;;;;;23.30;58.40;;;;;;5034481;28;19924;-66
2022/07/14 03:23:19;;;;;;;;;;;23.10;58.60;;;;;;5034381;28;19928;-66
2022/07/14 03:25:45;;;;;;;;;;;23.10;59.00;;;;;;5034369;28;19920;-66
2022/07/14 03:28:11;;;;;;;;;;;22.90;59.40;;;;;;5034276;28;19917;-67
2022/07/14 03:30:37;;;;;;;;;;;22.70;60.20;;;;;;5034474;28;19963;-66
2022/07/14 03:33:03;;;;;;;;;;;22.50;61.20;;;;;;5034046;28;19917;-65
2022/07/14 03:35:29;;;;;;;;;;;22.60;61.20;;;;;;5034307;28;19913;-66
2022/07/14 03:37:55;;;;;;;;;;;22.80;60.40;;;;;;5034212;28;19933;-65
2022/07/14 03:40:21;;;;;;;;;;;23.00;59.50;;;;;;5034103;28;19962;-66
2022/07/14 03:42:46;;;;;;;;;;;23.10;58.90;;;;;;5033838;28;19921;-66
2022/07/14 03:45:12;;;;;;;;;;;23.20;58.60;;;;;;5033894;28;19913;-66
2022/07/14 03:47:37;;;;;;;;;;;23.00;58.80;;;;;;5034131;28;19909;-65
2022/07/14 03:50:03;;;;;;;;;;;22.80;58.90;;;;;;5033093;28;19913;-65
2022/07/14 03:52:29;;;;;;;;;;;22.60;59.70;;;;;;5033964;28;19920;-66
2022/07/14 03:54:54;;;;;;;;;;;22.50;60.60;;;;;;5033716;28;19989;-66
2022/07/14 03:57:20;;;;;;;;;;;22.60;60.20;;;;;;5019984;28;19909;-65
2022/07/14 03:59:46;;;;;;;;;;;22.80;59.70;;;;;;5033601;28;19924;-66
2022/07/14 04:02:12;;;;;;;;;;;22.90;59.00;;;;;;5033690;28;20258;-65
2022/07/14 04:04:38;;;;;;;;;;;22.80;59.10;;;;;;5033760;28;19959;-66
2022/07/14 04:07:04;;;;;;;;;;;22.70;59.40;;;;;;5022609;28;19967;-66
2022/07/14 04:09:29;;;;;;;;;;;22.50;59.60;;;;;;5030947;28;19913;-65
2022/07/14 04:11:55;;;;;;;;;;;22.50;59.50;;;;;;5033786;28;20388;-66
2022/07/14 04:14:21;;;;;;;;;;;22.70;59.40;;;;;;5033584;28;19999;-65
2022/07/14 04:16:47;;;;;;;;;;;22.70;59.20;;;;;;5033673;28;20312;-65
2022/07/14 04:19:13;;;;;;;;;;;22.60;59.20;;;;;;5033383;28;19913;-66
2022/07/14 04:21:39;;;;;;;;;;;22.60;59.50;;;;;;5033436;28;19967;-66
2022/07/14 04:24:04;;;;;;;;;;;22.80;59.40;;;;;;5033496;28;19957;-65
2022/07/14 04:26:30;;;;;;;;;;;22.80;59.60;;;;;;5033109;28;20004;-65
2022/07/14 04:28:56;;;;;;;;;;;22.70;59.80;;;;;;5033336;28;20008;-66
2022/07/14 04:31:21;;;;;;;;;;;22.60;60.10;;;;;;5033187;28;19909;-65
2022/07/14 04:33:47;;;;;;;;;;;22.70;59.90;;;;;;5033314;28;20385;-65
2022/07/14 04:36:12;;;;;;;;;;;22.80;59.50;;;;;;5033489;28;19990;-66
2022/07/14 04:38:38;;;;;;;;;;;22.80;59.40;;;;;;5033094;28;19916;-65
2022/07/14 04:41:03;;;;;;;;;;;22.80;59.30;;;;;;5033283;28;19979;-64
2022/07/14 04:43:29;;;;;;;;;;;22.80;58.90;;;;;;5032894;28;19972;-64
2022/07/14 04:45:54;;;;;;;;;;;22.70;58.50;;;;;;5032863;28;20005;-65
2022/07/14 04:48:20;;;;;;;;;;;22.60;60.00;;;;;;5035283;28;19910;-64
2022/07/14 04:53:30;;;;;;;;;;;22.40;61.00;;;;;;5033240;28;20003;-65
2022/07/14 04:55:56;;;;;;;;;;;22.40;60.50;;;;;;5032729;28;20318;-65
2022/07/14 04:58:25;;;;;;;;;;;22.50;59.70;;;;;;5032585;28;19936;-66
2022/07/14 05:00:51;;;;;;;;;;;22.60;59.20;;;;;;5032592;28;19913;-69
2022/07/14 05:03:17;;;;;;;;;;;22.60;58.50;;;;;;5032571;28;20098;-65
2022/07/14 05:05:42;;;;;;;;;;;22.70;58.20;;;;;;5032270;28;20090;-67
2022/07/14 05:08:08;;;;;;;;;;;22.80;56.90;;;;;;5019087;28;19977;-64
2022/07/14 05:10:33;;;;;;;;;;;22.90;57.30;;;;;;5032588;28;19916;-67
2022/07/14 05:12:59;;;;;;;;;;;23.20;57.60;;;;;;5032310;28;19913;-64
2022/07/14 05:15:24;;;;;;;;;;;23.40;58.00;;;;;;5032622;28;19909;-65
2022/07/14 05:17:50;;;;;;;;;;;23.50;57.70;;;;;;5032412;28;19952;-67
2022/07/14 05:20:15;;;;;;;;;;;23.60;57.10;;;;;;5032584;28;19913;-67
2022/07/14 05:22:42;;;;;;;;;;;23.60;57.30;;;;;;5032241;28;19913;-67
2022/07/14 05:25:08;;;;;;;;;;;23.70;58.10;;;;;;5005244;28;20268;-65
2022/07/14 05:27:35;;;;;;;;;;;23.90;58.70;;;;;;5032058;28;19921;-67
2022/07/14 05:30:02;;;;;;;;;;;23.90;58.50;;;;;;5032348;28;20258;-68
2022/07/14 05:32:27;;;;;;;;;;;24.10;58.60;;;;;;5032144;28;19909;-67
2022/07/14 05:34:53;;;;;;;;;;;24.10;58.40;;;;;;5031957;28;20336;-62
2022/07/14 05:37:18;;;;;;;;;;;24.20;58.10;;;;;;5032373;28;19917;-66
2022/07/14 05:39:44;;;;;;;;;;;24.30;57.40;;;;;;5031806;28;19913;-62
2022/07/14 05:42:10;;;;;;;;;;;24.40;56.60;;;;;;5032055;28;19909;-62
2022/07/14 05:44:36;;;;;;;;;;;24.50;56.50;;;;;;5014039;28;19918;-66
2022/07/14 05:47:01;;;;;;;;;;;24.70;56.20;;;;;;4992243;28;19937;-61
2022/07/14 05:49:27;;;;;;;;;;;24.80;55.00;;;;;;4991814;28;19933;-63
2022/07/14 05:51:52;;;;;;;;;;;25.00;54.20;;;;;;4991776;28;20400;-59
2022/07/14 05:54:18;;;;;;;;;;;25.20;53.50;;;;;;4991882;28;19921;-58
2022/07/14 05:56:43;;;;;;;;;;;25.30;52.60;;;;;;4991787;28;20009;-60
2022/07/14 05:59:09;;;;;;;;;;;25.40;52.50;;;;;;4991728;28;19973;-60
2022/07/14 06:01:34;;;;;;;;;;;25.60;52.30;;;;;;4991872;28;19910;-63
2022/07/14 06:04:00;;;;;;;;;;;25.70;52.00;;;;;;4992095;28;19967;-58
2022/07/14 06:06:26;;;;;;;;;;;25.80;51.80;;;;;;5011369;28;19952;-60
2022/07/14 06:08:51;;;;;;;;;;;25.80;51.10;;;;;;5006522;28;19966;-58
2022/07/14 06:11:17;;;;;;;;;;;25.90;50.70;;;;;;5031790;28;19913;-59
2022/07/14 06:13:45;;;;;;;;;;;25.90;50.70;;;;;;5034097;28;19909;-64
2022/07/14 06:16:11;;;;;;;;;;;26.00;50.80;;;;;;5035858;28;19910;-68
2022/07/14 06:18:37;;;;;;;;;;;26.00;50.80;;;;;;5035974;28;19916;-60
2022/07/14 06:21:06;;;;;;;;;;;26.20;50.70;;;;;;5035734;28;19913;-64
2022/07/14 06:23:32;;;;;;;;;;;26.50;50.80;;;;;;5035766;28;20397;-66
2022/07/14 06:25:58;;;;;;;;;;;27.00;50.90;;;;;;5001249;28;19914;-64
2022/07/14 06:28:23;;;;;;;;;;;27.40;49.40;;;;;;4995697;28;19920;-64
2022/07/14 06:30:49;;;;;;;;;;;27.80;46.00;;;;;;4995379;28;19910;-64
2022/07/14 06:33:14;;;;;;;;;;;28.20;44.60;;;;;;4995571;28;19914;-64
2022/07/14 06:35:40;;;;;;;;;;;28.50;43.20;;;;;;4995046;28;19910;-65
2022/07/14 06:38:06;;;;;;;;;;;28.80;42.20;;;;;;4995829;28;19917;-64
2022/07/14 06:40:32;;;;;;;;;;;29.10;41.60;;;;;;4995232;28;19913;-63
2022/07/14 06:42:58;;;;;;;;;;;29.30;41.50;;;;;;4995177;28;19914;-62
2022/07/14 06:45:23;;;;;;;;;;;29.50;40.70;;;;;;5014619;28;19924;-64
2022/07/14 06:47:49;;;;;;;;;;;29.60;40.30;;;;;;5014993;28;19909;-64
2022/07/14 06:50:14;;;;;;;;;;;29.80;39.60;;;;;;5022260;28;19913;-62
2022/07/14 06:52:40;;;;;;;;;;;29.90;39.70;;;;;;5014242;28;19977;-64
2022/07/14 06:55:06;;;;;;;;;;;30.10;39.20;;;;;;5014741;28;20420;-65
2022/07/14 06:57:32;;;;;;;;;;;30.20;38.70;;;;;;5014397;28;19913;-64
2022/07/14 06:59:57;;;;;;;;;;;30.30;38.80;;;;;;5014175;28;19921;-66
2022/07/14 07:02:23;;;;;;;;;;;30.40;38.90;;;;;;5014347;28;19913;-62
2022/07/14 07:07:33;;;;;;;;;;;30.20;39.50;;;;;;5019801;28;20439;-62
2022/07/14 07:09:59;;;;;;;;;;;30.00;39.30;;;;;;5034948;28;19909;-62
2022/07/14 07:12:24;;;;;;;;;;;29.80;39.90;;;;;;5034877;28;19913;-62
2022/07/14 07:14:50;;;;;;;;;;;29.60;40.30;;;;;;5034536;28;19916;-64
2022/07/14 07:17:15;;;;;;;;;;;29.40;40.90;;;;;;5034489;28;19913;-64
2022/07/14 07:19:41;;;;;;;;;;;29.20;41.10;;;;;;5034424;28;19909;-63
2022/07/14 07:22:06;;;;;;;;;;;29.00;41.40;;;;;;5034827;28;19992;-63
2022/07/14 07:24:32;;;;;;;;;;;29.00;41.70;;;;;;5032764;28;19918;-64
2022/07/14 07:26:57;;;;;;;;;;;28.90;42.00;;;;;;5033709;28;20009;-63
2022/07/14 07:29:23;;;;;;;;;;;29.10;41.70;;;;;;5034138;28;19917;-67
2022/07/14 07:31:49;;;;;;;;;;;29.20;40.80;;;;;;5034334;28;20368;-64
2022/07/14 07:34:14;;;;;;;;;;;29.10;40.60;;;;;;5034273;28;20288;-65
2022/07/14 07:36:40;;;;;;;;;;;29.00;41.40;;;;;;5034088;28;19967;-64
2022/07/14 07:39:05;;;;;;;;;;;29.00;41.80;;;;;;5034164;28;19955;-64
2022/07/14 07:41:31;;;;;;;;;;;29.00;42.40;;;;;;5034194;28;19916;-64
2022/07/14 07:43:58;;;;;;;;;;;29.00;42.90;;;;;;5034142;28;19921;-66
2022/07/14 07:46:24;;;;;;;;;;;29.10;43.10;;;;;;5034055;28;19974;-66
2022/07/14 07:48:50;;;;;;;;;;;29.10;42.70;;;;;;5033966;28;20289;-66
2022/07/14 07:51:16;;;;;;;;;;;29.20;43.00;;;;;;5034039;28;20351;-64
2022/07/14 07:53:43;;;;;;;;;;;29.30;42.50;;;;;;5034144;28;19916;-64
2022/07/14 07:56:09;;;;;;;;;;;29.50;41.80;;;;;;5033750;28;20396;-67
2022/07/14 07:58:35;;;;;;;;;;;29.70;39.50;;;;;;5033751;28;19929;-66
2022/07/14 08:01:01;;;;;;;;;;;29.80;39.50;;;;;;5033970;28;19909;-67
2022/07/14 08:03:27;;;;;;;;;;;29.90;39.30;;;;;;5033633;28;19921;-64
2022/07/14 08:05:52;;;;;;;;;;;29.90;39.80;;;;;;5032032;28;20285;-65
2022/07/14 08:08:18;;;;;;;;;;;29.90;40.00;;;;;;5022245;28;19916;-63
2022/07/14 08:10:44;;;;;;;;;;;29.90;40.10;;;;;;5038913;28;19913;-64
2022/07/14 08:13:10;;;;;;;;;;;29.90;40.00;;;;;;5038835;28;19920;-64
2022/07/14 08:15:36;;;;;;;;;;;29.90;40.60;;;;;;5038920;28;20373;-64
2022/07/14 08:18:02;;;;;;;;;;;30.00;39.40;;;;;;5036036;28;19920;-65
2022/07/14 08:20:28;;;;;;;;;;;30.00;39.50;;;;;;5033837;28;19932;-64
2022/07/14 08:22:53;;;;;;;;;;;30.00;39.90;;;;;;5033190;28;20360;-65
2022/07/14 08:25:19;;;;;;;;;;;30.00;39.90;;;;;;5033562;28;19920;-67
2022/07/14 08:27:44;;;;;;;;;;;30.00;40.40;;;;;;5033678;28;19920;-64
2022/07/14 08:30:10;;;;;;;;;;;30.10;39.80;;;;;;5033495;28;19909;-67
2022/07/14 08:32:39;;;;;;;;;;;30.00;40.00;;;;;;5033499;28;19973;-67
2022/07/14 08:35:05;;;;;;;;;;;30.00;40.00;;;;;;5033153;28;20361;-65
2022/07/14 08:37:31;;;;;;;;;;;30.10;40.30;;;;;;5033218;28;19996;-66
2022/07/14 08:39:57;;;;;;;;;;;30.10;40.60;;;;;;5033361;28;19963;-64
2022/07/14 08:42:23;;;;;;;;;;;30.10;40.40;;;;;;5033461;28;20331;-64
2022/07/14 08:44:48;;;;;;;;;;;30.00;40.60;;;;;;5036769;28;19987;-65
2022/07/14 08:47:14;;;;;;;;;;;29.90;41.10;;;;;;5043125;28;19915;-66
2022/07/14 08:49:40;;;;;;;;;;;30.00;41.40;;;;;;5034238;28;20004;-67
2022/07/14 08:52:05;;;;;;;;;;;30.00;40.80;;;;;;5033122;28;19951;-66
2022/07/14 08:54:36;;;;;;;;;;;30.00;40.60;;;;;;5023254;28;20385;-64
2022/07/14 08:57:02;;;;;;;;;;;29.90;40.80;;;;;;5030014;28;19971;-67
2022/07/14 08:59:28;;;;;;;;;;;29.80;41.00;;;;;;5032874;28;20008;-68
2022/07/14 09:01:54;;;;;;;;;;;29.70;41.20;;;;;;5032972;28;20015;-68
2022/07/14 09:04:19;;;;;;;;;;;29.60;41.40;;;;;;5032899;28;19921;-66
2022/07/14 09:06:46;;;;;;;;;;;29.70;41.40;;;;;;5024583;28;19956;-66
2022/07/14 09:09:15;;;;;;;;;;;29.60;41.30;;;;;;5026752;28;20324;-67
2022/07/14 09:12:00;;;;;;;;;;;29.50;41.40;;;;;;5032786;28;20009;-67
2022/07/14 09:14:28;;;;;;;;;;;29.50;41.70;;;;;;5033036;28;19917;-66
2022/07/14 09:17:13;;;;;;;;;;;29.40;42.30;;;;;;5032923;28;20325;-64
2022/07/14 09:19:49;;;;;;;;;;;29.40;42.00;;;;;;5032570;28;20381;-63
2022/07/14 09:22:26;;;;;;;;;;;29.40;42.20;;;;;;5032705;28;19909;-66
2022/07/14 09:24:51;;;;;;;;;;;29.30;42.40;;;;;;5032516;28;19921;-65
2022/07/14 09:27:20;;;;;;;;;;;29.40;41.40;;;;;;5032748;28;19916;-66
2022/07/14 09:29:52;;;;;;;;;;;29.50;42.00;;;;;;5032444;28;20269;-63
2022/07/14 09:32:18;;;;;;;;;;;29.50;41.50;;;;;;5032637;28;19913;-66
2022/07/14 09:34:43;;;;;;;;;;;29.50;41.40;;;;;;5032295;28;20392;-65
2022/07/14 09:37:18;;;;;;;;;;;29.50;41.40;;;;;;5032468;28;20289;-67
2022/07/14 09:39:54;;;;;;;;;;;29.40;41.60;;;;;;5032200;28;19917;-66
2022/07/14 09:42:19;;;;;;;;;;;29.40;41.60;;;;;;5032391;28;19909;-66
2022/07/14 09:44:45;;;;;;;;;;;29.40;41.80;;;;;;5032296;28;19924;-66
2022/07/14 09:47:11;;;;;;;;;;;29.40;41.30;;;;;;5031745;28;19920;-64
2022/07/14 09:49:37;;;;;;;;;;;29.50;39.60;;;;;;5032013;28;20374;-65
2022/07/14 09:52:06;;;;;;;;;;;29.60;38.90;;;;;;5032204;28;19971;-66
2022/07/14 09:54:44;;;;;;;;;;;29.60;37.40;;;;;;5032115;28;19963;-63
2022/07/14 09:57:12;;;;;;;;;;;29.60;34.10;;;;;;5032190;28;19944;-68
2022/07/14 09:59:48;;;;;;;;;;;29.60;34.60;;;;;;5032026;28;19963;-65
2022/07/14 10:02:16;;;;;;;;;;;29.60;35.80;;;;;;5031815;28;19945;-64
2022/07/14 10:04:42;;;;;;;;;;;29.60;35.90;;;;;;5031841;28;20379;-65
2022/07/14 10:07:07;;;;;;;;;;;29.60;34.70;;;;;;5020622;28;20017;-66
2022/07/14 10:09:37;;;;;;;;;;;29.60;34.80;;;;;;5029906;28;20751;-65
2022/07/14 10:12:03;;;;;;;;;;;29.60;34.20;;;;;;5032060;28;19913;-66
2022/07/14 10:14:29;;;;;;;;;;;29.60;34.80;;;;;;5031669;28;19913;-65
2022/07/14 10:16:58;;;;;;;;;;;29.50;32.40;;;;;;5032062;28;19917;-68
2022/07/14 10:19:25;;;;;;;;;;;29.60;31.30;;;;;;5031750;28;20345;-66
2022/07/14 10:21:54;;;;;;;;;;;29.60;29.30;;;;;;5031919;28;19913;-67
2022/07/14 10:24:21;;;;;;;;;;;29.60;30.30;;;;;;5031848;28;19917;-67
2022/07/14 10:26:46;;;;;;;;;;;29.60;30.90;;;;;;5031873;28;20028;-67
2022/07/14 10:29:12;;;;;;;;;;;29.50;31.50;;;;;;5031766;28;20429;-67
2022/07/14 10:31:50;;;;;;;;;;;29.60;31.80;;;;;;5031786;28;19909;-67
2022/07/14 10:34:42;;;;;;;;;;;29.50;29.60;;;;;;5031971;28;19917;-68
2022/07/14 10:37:10;;;;;;;;;;;29.50;27.30;;;;;;5027839;28;19909;-67
2022/07/14 10:39:36;;;;;;;;;;;29.50;27.40;;;;;;5031763;28;19963;-68
2022/07/14 10:42:20;;;;;;;;;;;29.50;28.30;;;;;;5031652;28;19909;-67
2022/07/14 10:44:46;;;;;;;;;;;29.50;28.30;;;;;;5032980;28;20262;-67
2022/07/14 10:47:13;;;;;;;;;;;29.50;28.70;;;;;;5037648;28;19959;-69
2022/07/14 10:49:57;;;;;;;;;;;29.50;28.40;;;;;;5031854;28;19913;-65
2022/07/14 10:52:26;;;;;;;;;;;29.50;29.70;;;;;;5031875;28;19909;-66
2022/07/14 10:55:10;;;;;;;;;;;29.50;29.00;;;;;;5031660;28;20075;-66
2022/07/14 10:57:35;;;;;;;;;;;29.50;29.90;;;;;;5031285;28;19913;-67
2022/07/14 11:00:02;;;;;;;;;;;29.60;30.00;;;;;;4997641;28;19925;-67
2022/07/14 11:02:28;;;;;;;;;;;29.60;28.20;;;;;;5015147;28;19916;-67
2022/07/14 11:05:00;;;;;;;;;;;29.60;28.30;;;;;;5008276;28;19914;-62
2022/07/14 11:07:51;;;;;;;;;;;29.70;26.90;;;;;;5014914;28;19944;-60
2022/07/14 11:10:20;;;;;;;;;;;29.70;27.10;;;;;;4990563;28;19910;-60
2022/07/14 11:13:04;;;;;;;;;;;29.70;24.20;;;;;;5016757;28;19918;-64
2022/07/14 11:15:35;;;;;;;;;;;29.80;26.20;;;;;;5011632;28;19909;-65
2022/07/14 11:18:22;;;;;;;;;;;29.90;26.40;;;;;;5011929;28;19917;-61
2022/07/14 11:20:53;;;;;;;;;;;29.80;24.70;;;;;;5016014;28;20354;-62
2022/07/14 11:23:21;;;;;;;;;;;29.90;26.60;;;;;;5016367;28;19952;-64
2022/07/14 11:25:51;;;;;;;;;;;29.90;26.50;;;;;;5015783;28;20001;-64
2022/07/14 11:28:31;;;;;;;;;;;29.80;24.80;;;;;;5014563;28;20428;-65
2022/07/14 11:31:17;;;;;;;;;;;29.80;24.30;;;;;;5021862;28;19921;-66
2022/07/14 11:36:31;;;;;;;;;;;29.90;24.30;;;;;;5015012;28;20028;-63
2022/07/14 11:39:20;;;;;;;;;;;29.90;25.10;;;;;;5028287;28;20263;-65
2022/07/14 11:41:50;;;;;;;;;;;29.90;23.50;;;;;;5026323;28;19913;-64
2022/07/14 11:44:38;;;;;;;;;;;29.80;23.40;;;;;;5015785;28;19966;-64
2022/07/14 11:47:20;;;;;;;;;;;29.80;22.80;;;;;;5014212;28;19959;-65
2022/07/14 11:49:50;;;;;;;;;;;29.70;25.20;;;;;;5014281;28;19913;-64
2022/07/14 11:52:23;;;;;;;;;;;29.80;24.90;;;;;;5003430;28;19957;-65
2022/07/14 11:54:51;;;;;;;;;;;29.90;25.20;;;;;;5018330;28;19913;-63
2022/07/14 11:57:17;;;;;;;;;;;29.90;25.20;;;;;;5014211;28;19961;-62
2022/07/14 11:59:43;;;;;;;;;;;30.00;25.10;;;;;;5013449;28;20322;-64
2022/07/14 12:02:10;;;;;;;;;;;29.90;23.50;;;;;;5013309;28;19964;-63
2022/07/14 12:04:49;;;;;;;;;;;29.90;25.40;;;;;;5012874;28;19925;-65
2022/07/14 12:07:15;;;;;;;;;;;30.00;26.40;;;;;;5011708;28;19917;-64
2022/07/14 12:09:40;;;;;;;;;;;29.90;25.50;;;;;;5010377;28;19964;-64
2022/07/14 12:12:06;;;;;;;;;;;29.90;27.40;;;;;;5009949;28;19913;-63
2022/07/14 12:14:52;;;;;;;;;;;29.90;28.30;;;;;;5010468;28;19910;-63
2022/07/14 12:17:19;;;;;;;;;;;29.80;29.90;;;;;;5004159;28;19976;-65
2022/07/14 12:19:45;;;;;;;;;;;29.80;29.60;;;;;;5015468;28;19913;-63
2022/07/14 12:22:11;;;;;;;;;;;29.80;30.50;;;;;;5023383;28;19921;-62
2022/07/14 12:24:38;;;;;;;;;;;29.70;29.90;;;;;;5013642;28;19921;-61
2022/07/14 12:27:08;;;;;;;;;;;29.60;31.60;;;;;;5010048;28;19918;-62
2022/07/14 12:29:35;;;;;;;;;;;29.70;30.60;;;;;;5013961;28;19914;-59
2022/07/14 12:32:00;;;;;;;;;;;29.60;31.30;;;;;;5003571;28;19963;-59
2022/07/14 12:34:27;;;;;;;;;;;29.60;31.30;;;;;;5013453;28;19917;-60
2022/07/14 12:36:55;;;;;;;;;;;29.60;31.50;;;;;;5021859;28;19916;-60
2022/07/14 12:39:20;;;;;;;;;;;29.60;32.70;;;;;;5007513;28;20060;-62
2022/07/14 12:41:46;;;;;;;;;;;29.70;33.00;;;;;;5010513;28;20004;-60
2022/07/14 12:44:12;;;;;;;;;;;29.70;33.10;;;;;;5016200;28;20437;-65
2022/07/14 12:46:38;;;;;;;;;;;29.60;32.80;;;;;;5010990;28;20377;-62
2022/07/14 12:49:04;;;;;;;;;;;29.60;34.90;;;;;;5010190;28;19925;-61
2022/07/14 12:51:33;;;;;;;;;;;29.60;35.20;;;;;;5003394;28;20292;-62
2022/07/14 12:54:19;;;;;;;;;;;29.60;35.50;;;;;;5010457;28;19989;-61
2022/07/14 12:56:52;;;;;;;;;;;29.60;34.50;;;;;;5011455;28;19979;-62
2022/07/14 12:59:21;;;;;;;;;;;29.60;36.60;;;;;;5011246;28;20458;-63
2022/07/14 13:01:47;;;;;;;;;;;29.60;35.00;;;;;;5011158;28;20296;-63
2022/07/14 13:04:17;;;;;;;;;;;29.70;33.10;;;;;;5011366;28;19925;-61
2022/07/14 13:06:44;;;;;;;;;;;29.70;32.90;;;;;;5011501;28;19961;-62
2022/07/14 13:09:14;;;;;;;;;;;29.70;31.80;;;;;;5011113;28;19917;-62
2022/07/14 13:11:40;;;;;;;;;;;29.60;31.40;;;;;;5012388;28;19936;-63
2022/07/14 13:14:08;;;;;;;;;;;29.70;31.80;;;;;;5013150;28;19910;-60
2022/07/14 13:16:34;;;;;;;;;;;29.70;32.40;;;;;;5012589;28;19925;-61
2022/07/14 13:19:04;;;;;;;;;;;29.60;30.80;;;;;;5012339;28;19917;-61
2022/07/14 13:21:49;;;;;;;;;;;29.60;32.10;;;;;;5009119;28;19992;-61
2022/07/14 13:24:34;;;;;;;;;;;29.60;29.30;;;;;;5012403;28;20063;-60
2022/07/14 13:27:02;;;;;;;;;;;29.50;30.30;;;;;;5000096;28;19921;-61
2022/07/14 13:29:28;;;;;;;;;;;29.40;32.80;;;;;;5012159;28;20401;-60
2022/07/14 13:31:54;;;;;;;;;;;29.30;31.80;;;;;;5012820;28;19922;-61
2022/07/14 13:34:20;;;;;;;;;;;29.20;31.50;;;;;;5008121;28;19917;-64
2022/07/14 13:36:46;;;;;;;;;;;29.10;30.70;;;;;;5002462;28;19918;-62
2022/07/14 13:39:11;;;;;;;;;;;29.10;31.20;;;;;;5009065;28;19986;-60
2022/07/14 13:41:37;;;;;;;;;;;29.00;31.20;;;;;;4999699;28;20293;-64
2022/07/14 13:44:03;;;;;;;;;;;29.00;32.00;;;;;;4998980;28;19922;-62
2022/07/14 13:46:30;;;;;;;;;;;29.00;31.10;;;;;;5014083;28;20262;-66
2022/07/14 13:48:56;;;;;;;;;;;29.10;32.50;;;;;;5014689;28;19973;-63
2022/07/14 13:54:06;;;;;;;;;;;29.00;27.10;;;;;;5012014;28;19963;-58
2022/07/14 13:56:32;;;;;;;;;;;29.00;31.20;;;;;;5012198;28;20016;-61
2022/07/14 13:58:57;;;;;;;;;;;29.00;29.90;;;;;;5012277;28;19933;-62
2022/07/14 14:01:23;;;;;;;;;;;29.10;30.30;;;;;;5011666;28;19965;-61
2022/07/14 14:03:49;;;;;;;;;;;29.10;29.10;;;;;;4999079;28;19933;-61
2022/07/14 14:06:14;;;;;;;;;;;29.00;26.70;;;;;;5009804;28;19917;-62
2022/07/14 14:08:41;;;;;;;;;;;29.00;25.90;;;;;;5011432;28;19956;-63
2022/07/14 14:11:07;;;;;;;;;;;29.10;25.40;;;;;;5005912;28;19940;-58
2022/07/14 14:13:33;;;;;;;;;;;29.10;27.60;;;;;;5010950;28;19914;-60
2022/07/14 14:15:59;;;;;;;;;;;29.20;28.50;;;;;;5011206;28;19909;-59
2022/07/14 14:18:25;;;;;;;;;;;29.20;28.40;;;;;;4993507;28;20293;-59
2022/07/14 14:20:51;;;;;;;;;;;29.20;27.50;;;;;;5011313;28;19913;-61
2022/07/14 14:23:16;;;;;;;;;;;29.30;27.20;;;;;;5011680;28;20641;-62
2022/07/14 14:25:42;;;;;;;;;;;29.30;27.80;;;;;;5010509;28;19992;-59
2022/07/14 14:28:08;;;;;;;;;;;29.30;27.30;;;;;;5012080;28;19979;-60
2022/07/14 14:30:34;;;;;;;;;;;29.30;27.30;;;;;;4991956;28;19953;-60
2022/07/14 14:33:00;;;;;;;;;;;29.30;27.30;;;;;;5011345;28;19914;-63